Time;durP1;ratioP1;P1;durP2;ratioP2;P2;SDS_P1;SDS_P2;PMS_P1;PMS_P2;Temp;Humidity;BMP_temperature;BMP_pressure;BME280_temperature;BME280_humidity;BME280_pressure;Samples;Min_cycle;Max_cycle;Signal;HPM_P1;HPM_P2
2023/07/13 00:01:16;;;;;;;16.50;12.25;;;;;;;26.89;75.01;99874.88;5060875;28;20045;-64
2023/07/13 00:03:42;;;;;;;16.33;12.48;;;;;;;26.87;75.15;99870.78;5060460;28;20039;-64
2023/07/13 00:06:08;;;;;;;14.50;12.00;;;;;;;26.79;75.80;99874.00;5060598;28;20108;-64
2023/07/13 00:08:34;;;;;;;16.00;12.05;;;;;;;26.83;75.40;99873.22;5060563;28;20665;-64
2023/07/13 00:11:01;;;;;;;17.25;11.98;;;;;;;26.79;76.25;99877.56;5059885;28;20385;-64
2023/07/13 00:13:29;;;;;;;14.98;11.95;;;;;;;26.82;76.50;99874.31;5060322;28;20033;-64
2023/07/13 00:15:55;;;;;;;16.35;11.95;;;;;;;26.82;75.82;99868.88;5060410;28;20046;-64
2023/07/13 00:18:21;;;;;;;14.98;12.35;;;;;;;26.89;74.72;99874.06;5060167;28;20037;-64
2023/07/13 00:20:47;;;;;;;14.50;11.90;;;;;;;26.85;75.55;99872.97;5060863;28;20059;-64
2023/07/13 00:23:12;;;;;;;16.20;11.82;;;;;;;26.81;74.65;99874.56;5060695;28;20082;-64
2023/07/13 00:25:38;;;;;;;13.85;11.80;;;;;;;26.72;74.25;99868.81;5061349;28;20333;-64
2023/07/13 00:28:03;;;;;;;17.50;12.35;;;;;;;26.58;74.91;99864.97;5060863;28;20041;-64
2023/07/13 00:30:28;;;;;;;15.82;12.32;;;;;;;26.58;75.44;99867.69;5060332;28;20033;-64
2023/07/13 00:32:54;;;;;;;15.52;12.32;;;;;;;26.55;76.25;99863.59;5059883;28;20061;-64
2023/07/13 00:35:19;;;;;;;16.13;12.07;;;;;;;26.36;76.86;99862.41;5060536;28;20322;-65
2023/07/13 00:37:45;;;;;;;15.25;12.23;;;;;;;26.38;77.33;99858.34;5060312;28;20045;-65
2023/07/13 00:40:15;;;;;;;16.02;13.32;;;;;;;26.49;77.49;99864.66;5059939;28;20342;-65
2023/07/13 00:42:41;;;;;;;15.40;12.35;;;;;;;26.49;77.70;99861.13;5060949;28;20033;-65
2023/07/13 00:45:12;;;;;;;16.00;12.50;;;;;;;26.49;77.30;99861.94;5060898;28;20043;-64
2023/07/13 00:47:43;;;;;;;14.90;12.02;;;;;;;26.52;76.89;99858.69;5060580;28;20045;-64
2023/07/13 00:50:12;;;;;;;15.38;12.07;;;;;;;26.55;76.72;99852.72;5060286;28;20044;-65
2023/07/13 00:52:41;;;;;;;17.45;12.70;;;;;;;26.49;75.01;99842.91;5060248;28;20041;-65
2023/07/13 00:55:09;;;;;;;15.57;12.05;;;;;;;26.44;76.83;99858.38;5060686;28;20195;-64
2023/07/13 00:57:35;;;;;;;19.52;12.65;;;;;;;26.28;77.06;99854.72;5060709;28;20040;-64
2023/07/13 01:00:05;;;;;;;14.60;12.27;;;;;;;26.31;77.50;99852.31;5060653;28;20330;-65
2023/07/13 01:02:31;;;;;;;16.40;12.60;;;;;;;26.29;77.25;99853.63;5043023;28;20034;-65
2023/07/13 01:04:56;;;;;;;17.90;12.48;;;;;;;26.28;78.13;99843.88;5060807;28;20035;-64
2023/07/13 01:07:22;;;;;;;16.52;12.07;;;;;;;26.19;78.15;99846.25;5060126;28;20071;-65
2023/07/13 01:09:47;;;;;;;16.13;12.13;;;;;;;26.22;77.93;99842.19;5059543;28;20045;-64
2023/07/13 01:12:13;;;;;;;15.27;11.90;;;;;;;26.19;75.58;99838.13;5059529;28;20037;-64
2023/07/13 01:14:39;;;;;;;17.95;13.15;;;;;;;26.12;77.58;99842.13;5059247;28;20353;-64
2023/07/13 01:17:05;;;;;;;16.27;12.82;;;;;;;25.81;79.23;99835.66;5059788;28;20104;-64
2023/07/13 01:19:40;;;;;;;17.30;12.20;;;;;;;25.90;79.24;99836.78;5059811;28;20095;-64
2023/07/13 01:22:11;;;;;;;22.52;13.70;;;;;;;25.98;78.35;99844.44;5059932;28;20317;-64
2023/07/13 01:24:39;;;;;;;17.60;12.45;;;;;;;25.93;79.07;99837.09;5060434;28;20033;-64
2023/07/13 01:27:07;;;;;;;16.48;12.48;;;;;;;25.97;78.28;99848.25;5060295;28;20036;-65
2023/07/13 01:29:34;;;;;;;17.90;13.27;;;;;;;26.01;78.37;99841.25;5059860;28;20096;-65
2023/07/13 01:32:00;;;;;;;17.05;12.93;;;;;;;26.02;78.44;99843.69;5060495;28;20234;-64
2023/07/13 01:34:27;;;;;;;18.05;13.50;;;;;;;26.06;78.01;99847.53;5059621;28;20064;-64
2023/07/13 01:36:53;;;;;;;18.13;13.32;;;;;;;26.13;77.87;99847.31;5059578;28;20041;-65
2023/07/13 01:39:21;;;;;;;16.45;12.18;;;;;;;26.14;77.70;99848.94;5059852;28;20226;-65
2023/07/13 01:41:46;;;;;;;17.30;13.13;;;;;;;26.17;76.95;99851.13;5059812;28;20126;-64
2023/07/13 01:44:12;;;;;;;17.75;12.07;;;;;;;26.02;77.54;99851.03;5059744;28;20044;-65
2023/07/13 01:46:37;;;;;;;14.32;12.63;;;;;;;26.08;77.36;99853.50;5059918;28;20041;-65
2023/07/13 01:49:02;;;;;;;19.67;13.70;;;;;;;26.01;78.10;99849.38;5059790;28;20045;-64
2023/07/13 01:51:28;;;;;;;20.33;14.18;;;;;;;26.02;78.80;99851.84;5059484;28;20123;-65
2023/07/13 01:53:53;;;;;;;17.77;13.75;;;;;;;26.07;78.85;99854.59;5059578;28;20315;-64
2023/07/13 01:56:19;;;;;;;16.63;12.98;;;;;;;26.02;77.46;99851.84;5060011;28;20040;-64
2023/07/13 01:58:46;;;;;;;16.20;12.23;;;;;;;25.94;78.38;99846.88;5058791;28;20118;-65
2023/07/13 02:01:11;;;;;;;16.08;13.68;;;;;;;25.90;78.54;99834.09;5059228;28;20049;-64
2023/07/13 02:03:36;;;;;;;18.75;13.15;;;;;;;25.89;79.73;99848.72;5059030;28;20090;-65
2023/07/13 02:06:02;;;;;;;18.17;12.93;;;;;;;25.75;81.01;99848.34;5059077;28;20045;-64
2023/07/13 02:08:28;;;;;;;15.43;11.90;;;;;;;25.70;81.70;99843.69;5059199;28;20048;-64
2023/07/13 02:10:53;;;;;;;16.48;12.75;;;;;;;25.72;79.02;99851.56;5058682;28;20040;-65
2023/07/13 02:13:19;;;;;;;16.75;13.50;;;;;;;25.72;80.13;99859.72;5058867;28;20052;-64
2023/07/13 02:15:45;;;;;;;17.08;13.23;;;;;;;25.69;80.92;99865.66;5059312;28;20299;-64
2023/07/13 02:18:10;;;;;;;18.05;13.93;;;;;;;25.72;81.45;99868.66;5058363;28;20226;-65
2023/07/13 02:20:35;;;;;;;16.88;13.13;;;;;;;25.81;80.88;99873.63;5058461;28;20037;-64
2023/07/13 02:23:01;;;;;;;18.45;13.27;;;;;;;25.40;81.07;99878.63;5057869;28;20231;-64
2023/07/13 02:25:26;;;;;;;16.65;13.38;;;;;;;25.49;80.94;99879.00;5058328;28;20571;-64
2023/07/13 02:27:52;;;;;;;16.80;13.07;;;;;;;25.41;81.13;99877.56;5058005;28;20028;-64
2023/07/13 02:30:18;;;;;;;16.00;12.32;;;;;;;25.49;81.62;99879.81;5057925;28;20052;-64
2023/07/13 02:32:44;;;;;;;15.60;12.65;;;;;;;25.44;80.71;99883.28;5058329;28;20033;-64
2023/07/13 02:35:09;;;;;;;19.13;12.90;;;;;;;25.43;79.90;99886.25;5058268;28;20048;-64
2023/07/13 02:37:35;;;;;;;16.48;12.35;;;;;;;25.36;80.35;99881.03;5058970;28;20041;-64
2023/07/13 02:40:02;;;;;;;15.55;12.15;;;;;;;25.37;81.09;99879.97;5059012;28;20238;-64
2023/07/13 02:42:28;;;;;;;16.30;13.60;;;;;;;25.28;81.90;99881.50;5058303;28;20041;-64
2023/07/13 02:44:53;;;;;;;14.45;12.20;;;;;;;25.12;80.49;99885.13;5058874;28;20139;-64
2023/07/13 02:47:19;;;;;;;13.95;12.23;;;;;;;25.12;80.68;99877.00;5057970;28;20119;-64
2023/07/13 02:49:44;;;;;;;16.52;13.35;;;;;;;25.16;80.86;99870.00;5057449;28;20037;-65
2023/07/13 02:52:10;;;;;;;18.83;13.43;;;;;;;25.20;81.00;99883.84;5057858;28;20040;-64
2023/07/13 02:54:35;;;;;;;16.10;13.50;;;;;;;25.16;81.45;99880.00;5058307;28;20037;-65
2023/07/13 02:57:00;;;;;;;16.13;13.40;;;;;;;25.22;81.91;99882.53;5058458;28;20075;-64
2023/07/13 02:59:26;;;;;;;16.77;14.13;;;;;;;25.30;81.60;99892.09;5057772;28;20364;-65
2023/07/13 03:01:52;;;;;;;17.45;13.57;;;;;;;25.24;81.83;99885.78;5057807;28;20048;-64
2023/07/13 03:04:19;;;;;;;17.42;14.35;;;;;;;25.09;83.05;99889.16;5057925;28;20052;-64
2023/07/13 03:06:45;;;;;;;19.13;14.63;;;;;;;25.06;83.22;99883.44;5058328;28;20039;-65
2023/07/13 03:09:12;;;;;;;18.30;14.45;;;;;;;25.16;82.84;99882.72;5058042;28;20068;-64
2023/07/13 03:11:38;;;;;;;18.83;14.25;;;;;;;25.16;82.33;99888.13;5057961;28;20384;-64
2023/07/13 03:14:03;;;;;;;20.20;14.90;;;;;;;25.23;82.63;99888.75;5056897;28;20107;-64
2023/07/13 03:16:29;;;;;;;18.92;14.98;;;;;;;25.25;81.99;99895.56;5058458;28;20315;-64
2023/07/13 03:18:54;;;;;;;22.02;15.68;;;;;;;25.26;82.33;99891.78;5057757;28;20270;-64
2023/07/13 03:21:20;;;;;;;20.63;14.48;;;;;;;25.28;82.40;99886.91;5058653;28;20091;-64
2023/07/13 03:23:46;;;;;;;22.40;14.63;;;;;;;25.28;81.84;99891.53;5057814;28;20388;-64
2023/07/13 03:26:15;;;;;;;24.92;15.48;;;;;;;25.27;81.20;99885.28;5057633;28;20394;-64
2023/07/13 03:28:41;;;;;;;19.65;14.10;;;;;;;25.25;80.99;99883.91;5057982;28;20048;-64
2023/07/13 03:31:11;;;;;;;17.58;14.23;;;;;;;25.27;81.25;99889.88;5057806;28;20045;-64
2023/07/13 03:33:37;;;;;;;19.45;14.75;;;;;;;25.26;82.13;99883.66;5057793;28;20048;-64
2023/07/13 03:36:05;;;;;;;22.40;15.20;;;;;;;25.23;82.05;99877.91;5058130;28;20030;-64
2023/07/13 03:38:30;;;;;;;22.75;14.75;;;;;;;25.26;83.09;99890.97;5058332;28;20037;-64
2023/07/13 03:40:56;;;;;;;23.02;14.98;;;;;;;25.29;82.65;99882.31;5057828;28;20254;-64
2023/07/13 03:43:21;;;;;;;32.70;15.73;;;;;;;25.33;83.53;99891.56;5058112;28;20267;-65
2023/07/13 03:45:47;;;;;;;27.73;14.10;;;;;;;25.30;82.68;99886.66;5057456;28;20102;-64
2023/07/13 03:48:13;;;;;;;25.40;14.43;;;;;;;25.27;83.41;99888.00;5057585;28;20049;-64
2023/07/13 03:50:38;;;;;;;21.42;14.27;;;;;;;25.28;83.92;99892.34;5058322;28;20327;-65
2023/07/13 03:53:04;;;;;;;23.30;15.07;;;;;;;25.34;82.97;99898.63;5057803;28;20041;-64
2023/07/13 03:55:30;;;;;;;20.85;15.18;;;;;;;25.38;83.61;99895.16;5057655;28;20215;-64
2023/07/13 03:58:23;;;;;;;23.08;15.90;;;;;;;25.38;84.63;99895.16;5057864;28;20322;-64
2023/07/13 04:00:50;;;;;;;22.38;14.57;;;;;;;25.35;85.80;99897.56;5057626;28;20036;-65
2023/07/13 04:03:16;;;;;;;21.25;14.80;;;;;;;25.31;85.35;99897.25;5057528;28;20286;-64
2023/07/13 04:05:41;;;;;;;22.27;15.02;;;;;;;25.31;85.04;99896.44;5057562;28;20056;-64
2023/07/13 04:08:07;;;;;;;20.45;15.35;;;;;;;25.27;84.27;99900.72;5057322;28;20041;-64
2023/07/13 04:10:32;;;;;;;25.67;15.23;;;;;;;25.36;83.84;99900.03;5057468;28;20045;-64
2023/07/13 04:12:58;;;;;;;23.45;16.70;;;;;;;25.43;82.50;99899.81;5057899;28;20213;-64
2023/07/13 04:15:23;;;;;;;19.50;16.35;;;;;;;25.51;81.53;99896.66;5057690;28;20029;-64
2023/07/13 04:17:49;;;;;;;20.60;15.38;;;;;;;25.55;81.00;99905.09;5057482;28;20100;-65
2023/07/13 04:20:14;;;;;;;22.55;15.40;;;;;;;25.58;80.36;99901.84;5056771;28;20053;-64
2023/07/13 04:22:40;;;;;;;22.73;16.00;;;;;;;25.57;81.02;99901.03;5057278;28;20246;-64
2023/07/13 04:25:06;;;;;;;20.98;15.48;;;;;;;25.68;80.34;99905.50;5058005;28;20082;-64
2023/07/13 04:27:31;;;;;;;22.48;15.52;;;;;;;25.83;80.06;99901.31;5060824;28;20116;-65
2023/07/13 04:29:56;;;;;;;23.48;16.75;;;;;;;26.00;79.38;99913.66;5061218;28;20035;-65
2023/07/13 04:32:22;;;;;;;22.15;16.73;;;;;;;26.10;78.72;99907.53;5061241;28;20037;-64
2023/07/13 04:34:53;;;;;;;22.60;15.75;;;;;;;26.30;77.32;99904.13;5061367;28;20047;-65
2023/07/13 04:37:18;;;;;;;20.88;15.63;;;;;;;26.48;76.04;99905.63;5061257;28;20265;-65
2023/07/13 04:39:44;;;;;;;21.02;15.55;;;;;;;26.71;76.13;99910.66;5060538;28;20033;-64
2023/07/13 04:42:09;;;;;;;18.10;15.70;;;;;;;26.83;74.09;99919.41;5061128;28;20344;-64
2023/07/13 04:44:34;;;;;;;20.20;14.40;;;;;;;26.85;73.56;99906.38;5059948;28;20047;-63
2023/07/13 04:47:00;;;;;;;17.40;14.25;;;;;;;27.10;72.98;99918.50;5060419;28;20040;-63
2023/07/13 04:49:25;;;;;;;19.52;15.25;;;;;;;27.24;72.58;99919.63;5060258;28;20368;-63
2023/07/13 04:51:51;;;;;;;21.45;14.95;;;;;;;27.43;70.26;99917.22;5060783;28;20036;-64
2023/07/13 04:54:16;;;;;;;22.85;14.80;;;;;;;27.47;69.97;99908.25;5060680;28;20033;-64
2023/07/13 04:56:42;;;;;;;20.67;14.77;;;;;;;27.71;70.28;99913.22;5060314;28;20323;-64
2023/07/13 04:59:07;;;;;;;18.20;13.68;;;;;;;27.94;68.88;99915.41;5060561;28;20214;-64
2023/07/13 05:01:33;;;;;;;20.42;14.40;;;;;;;28.14;67.78;99914.63;5026325;28;20048;-63
2023/07/13 05:03:59;;;;;;;18.38;14.38;;;;;;;28.24;67.32;99912.75;5060674;28;20055;-64
2023/07/13 05:06:24;;;;;;;19.98;15.15;;;;;;;28.43;65.47;99917.59;5060560;28;20037;-64
2023/07/13 05:08:50;;;;;;;18.35;14.57;;;;;;;28.50;65.15;99909.97;5059472;28;20086;-64
2023/07/13 05:11:18;;;;;;;19.42;14.15;;;;;;;28.65;65.10;99920.00;5059924;28;20032;-65
2023/07/13 05:13:43;;;;;;;20.83;14.23;;;;;;;28.78;64.30;99913.97;5059975;28;20037;-65
2023/07/13 05:16:09;;;;;;;18.40;13.32;;;;;;;28.89;64.06;99918.31;5059713;28;20033;-64
2023/07/13 05:18:35;;;;;;;17.73;13.35;;;;;;;28.97;62.95;99925.09;5059357;28;20036;-65
2023/07/13 05:21:06;;;;;;;17.88;12.80;;;;;;;29.05;62.52;99917.16;5059524;28;20057;-65
2023/07/13 05:23:32;;;;;;;17.33;12.85;;;;;;;29.26;62.37;99914.38;5058915;28;20076;-65
2023/07/13 05:25:58;;;;;;;17.92;12.90;;;;;;;29.37;62.42;99914.03;5058822;28;20358;-65
2023/07/13 05:28:25;;;;;;;19.67;13.10;;;;;;;29.53;60.74;99918.31;5059059;28;20041;-65
2023/07/13 05:30:51;;;;;;;23.70;14.65;;;;;;;29.59;60.66;99916.38;5058727;28;20059;-65
2023/07/13 05:33:16;;;;;;;19.13;13.75;;;;;;;29.50;59.65;99913.44;5058992;28;20103;-64
2023/07/13 05:35:42;;;;;;;21.77;15.00;;;;;;;29.59;59.87;99913.66;5058967;28;20053;-65
2023/07/13 05:38:07;;;;;;;18.73;13.25;;;;;;;29.71;60.60;99911.38;5057835;28;20041;-64
2023/07/13 05:40:33;;;;;;;17.30;13.23;;;;;;;29.79;59.80;99912.69;5058915;28;20041;-64
2023/07/13 05:42:58;;;;;;;20.35;13.20;;;;;;;29.94;58.65;99914.47;5058401;28;20033;-64
2023/07/13 05:45:24;;;;;;;21.40;13.77;;;;;;;30.01;60.87;99912.22;5058489;28;20037;-64
2023/07/13 05:47:49;;;;;;;19.85;13.70;;;;;;;30.05;59.45;99911.41;5059535;28;20037;-65
2023/07/13 05:50:15;;;;;;;16.98;13.55;;;;;;;30.23;58.72;99914.56;5059339;28;20047;-65
2023/07/13 05:52:40;;;;;;;16.33;13.25;;;;;;;30.34;57.42;99911.44;5059482;28;20082;-65
2023/07/13 05:55:06;;;;;;;15.65;13.43;;;;;;;30.46;56.99;99917.31;5059410;28;20033;-63
2023/07/13 05:57:32;;;;;;;14.65;12.30;;;;;;;30.56;55.28;99905.47;5059135;28;20072;-62
2023/07/13 05:59:57;;;;;;;15.90;13.05;;;;;;;30.63;54.52;99905.97;5058955;28;20041;-62
2023/07/13 06:02:23;;;;;;;15.30;12.80;;;;;;;30.87;53.72;99907.88;5059011;28;20104;-65
2023/07/13 06:04:48;;;;;;;18.27;14.05;;;;;;;31.05;52.29;99915.31;5058508;28;20043;-65
2023/07/13 06:07:14;;;;;;;16.02;13.10;;;;;;;31.19;51.47;99916.25;5058473;28;20241;-62
2023/07/13 06:09:40;;;;;;;16.13;12.50;;;;;;;31.16;52.00;99914.09;5057910;28;20079;-62
2023/07/13 06:12:05;;;;;;;16.25;12.98;;;;;;;31.32;51.27;99925.66;5057559;28;20036;-63
2023/07/13 06:14:31;;;;;;;15.13;12.88;;;;;;;31.39;52.39;99921.47;5057560;28;20078;-62
2023/07/13 06:16:56;;;;;;;18.25;13.80;;;;;;;31.34;52.00;99928.94;5057271;28;20044;-63
2023/07/13 06:19:22;;;;;;;18.05;14.05;;;;;;;31.38;52.23;99927.22;5057409;28;20079;-63
2023/07/13 06:21:47;;;;;;;20.60;14.35;;;;;;;31.44;52.54;99924.13;5058008;28;20335;-63
2023/07/13 06:24:12;;;;;;;18.27;14.55;;;;;;;31.48;52.82;99918.06;5058230;28;20025;-63
2023/07/13 06:26:38;;;;;;;21.33;14.00;;;;;;;31.57;53.01;99921.75;5058026;28;20029;-63
2023/07/13 06:29:03;;;;;;;15.93;13.93;;;;;;;31.64;52.03;99917.53;5057376;28;20033;-63
2023/07/13 06:31:29;;;;;;;16.80;13.85;;;;;;;31.56;52.06;99910.00;5057441;28;20037;-62
2023/07/13 06:33:54;;;;;;;16.48;13.63;;;;;;;31.73;52.77;99907.56;5039325;28;20037;-63
2023/07/13 06:36:20;;;;;;;16.52;14.30;;;;;;;31.84;52.71;99910.94;5057692;28;20029;-63
2023/07/13 06:38:45;;;;;;;13.98;12.48;;;;;;;31.92;49.93;99896.56;5057337;28;20025;-63
2023/07/13 06:41:10;;;;;;;15.57;13.00;;;;;;;32.16;51.23;99896.44;5057540;28;20280;-63
2023/07/13 06:43:36;;;;;;;15.25;13.60;;;;;;;32.29;49.43;99892.97;5057374;28;20029;-63
2023/07/13 06:46:01;;;;;;;19.70;14.27;;;;;;;32.41;50.09;99887.00;5057064;28;20048;-63
2023/07/13 06:48:28;;;;;;;16.33;13.23;;;;;;;32.24;49.36;99897.69;5056972;28;20188;-64
2023/07/13 06:50:53;;;;;;;15.88;13.35;;;;;;;32.50;47.31;99887.91;5057610;28;20053;-63
2023/07/13 06:53:20;;;;;;;18.60;13.07;;;;;;;32.35;49.01;99894.50;5057477;28;20142;-64
2023/07/13 06:55:46;;;;;;;18.70;12.55;;;;;;;32.52;49.90;99884.88;5057449;28;20064;-63
2023/07/13 06:58:12;;;;;;;17.83;13.15;;;;;;;32.68;47.16;99883.44;5057017;28;20036;-63
2023/07/13 07:00:40;;;;;;;15.77;12.82;;;;;;;32.61;47.77;99888.53;5056980;28;20338;-63
2023/07/13 07:03:05;;;;;;;15.57;13.07;;;;;;;32.68;48.25;99886.19;5056426;28;20045;-63
2023/07/13 07:05:31;;;;;;;16.10;13.05;;;;;;;32.66;47.82;99886.50;5057173;28;20072;-64
2023/07/13 07:07:56;;;;;;;15.35;12.57;;;;;;;32.90;46.71;99893.72;5056597;28;20043;-63
2023/07/13 07:10:22;;;;;;;15.00;12.38;;;;;;;33.30;46.48;99886.59;5056534;28;20123;-63
2023/07/13 07:12:47;;;;;;;14.73;12.40;;;;;;;33.45;45.42;99894.47;5056521;28;20033;-63
2023/07/13 07:15:13;;;;;;;16.40;13.18;;;;;;;33.61;44.95;99894.94;5056385;28;20056;-63
2023/07/13 07:17:38;;;;;;;13.57;12.18;;;;;;;33.70;43.89;99895.00;5056838;28;20067;-63
2023/07/13 07:20:05;;;;;;;16.77;12.48;;;;;;;33.67;44.19;99892.88;5056427;28;20049;-63
2023/07/13 07:22:30;;;;;;;14.77;12.40;;;;;;;33.76;44.32;99891.81;5057138;28;20044;-64
2023/07/13 07:24:57;;;;;;;15.80;12.68;;;;;;;34.10;44.37;99885.75;5057350;28;20048;-64
2023/07/13 07:27:23;;;;;;;16.10;11.52;;;;;;;34.25;43.10;99887.28;5056757;28;20048;-64
2023/07/13 07:29:48;;;;;;;18.33;13.32;;;;;;;34.35;40.88;99886.25;5056369;28;20029;-63
2023/07/13 07:32:14;;;;;;;13.88;12.40;;;;;;;34.43;42.32;99882.75;5056842;28;20349;-63
2023/07/13 07:34:39;;;;;;;13.18;11.82;;;;;;;34.51;40.58;99873.72;5056536;28;20036;-64
2023/07/13 07:37:05;;;;;;;16.30;12.07;;;;;;;34.49;41.51;99876.78;5056429;28;20154;-64
2023/07/13 07:39:31;;;;;;;12.23;11.00;;;;;;;34.56;39.79;99868.88;5057140;28;20234;-64
2023/07/13 07:41:57;;;;;;;12.60;11.40;;;;;;;34.57;38.91;99873.25;5057041;28;20349;-64
2023/07/13 07:44:22;;;;;;;12.88;10.10;;;;;;;34.83;39.00;99861.53;5056794;28;20029;-65
2023/07/13 07:46:48;;;;;;;11.93;10.68;;;;;;;34.91;38.98;99866.25;5056536;28;20043;-64
2023/07/13 07:49:13;;;;;;;10.93;9.20;;;;;;;34.97;36.69;99856.72;5056606;28;20036;-64
2023/07/13 07:51:39;;;;;;;12.02;9.95;;;;;;;35.11;36.99;99857.38;5057021;28;20402;-65
2023/07/13 07:54:05;;;;;;;10.65;9.63;;;;;;;35.08;38.01;99862.72;5057093;28;20383;-65
2023/07/13 07:56:31;;;;;;;11.88;10.18;;;;;;;35.24;37.79;99861.13;5057123;28;20388;-64
2023/07/13 07:58:57;;;;;;;10.68;8.55;;;;;;;35.22;36.39;99872.44;5056799;28;20041;-64
2023/07/13 08:01:23;;;;;;;10.60;9.15;;;;;;;35.44;36.02;99857.78;5059408;28;20036;-64
2023/07/13 08:03:48;;;;;;;11.18;9.00;;;;;;;35.47;35.93;99857.13;5059009;28;20254;-64
2023/07/13 08:06:14;;;;;;;11.18;9.73;;;;;;;35.58;35.17;99849.34;5060792;28;20079;-64
2023/07/13 08:08:39;;;;;;;10.80;9.80;;;;;;;35.66;35.02;99853.22;5060451;28;20319;-65
2023/07/13 08:11:07;;;;;;;10.20;9.05;;;;;;;35.80;36.04;99853.84;5060137;28;20268;-64
2023/07/13 08:13:32;;;;;;;9.98;8.98;;;;;;;35.94;36.35;99848.97;5060076;28;20040;-64
2023/07/13 08:15:58;;;;;;;12.88;9.27;;;;;;;35.83;35.26;99848.50;5060085;28;20235;-64
2023/07/13 08:18:24;;;;;;;10.13;9.00;;;;;;;35.98;33.97;99851.88;5059034;28;20028;-65
2023/07/13 08:20:49;;;;;;;11.90;10.07;;;;;;;35.99;36.22;99842.47;5059792;28;20066;-64
2023/07/13 08:23:16;;;;;;;12.13;9.25;;;;;;;36.14;34.76;99842.75;5059175;28;20036;-65
2023/07/13 08:25:42;;;;;;;11.18;9.63;;;;;;;36.20;34.45;99834.28;5059724;28;20458;-64
2023/07/13 08:28:08;;;;;;;12.27;9.77;;;;;;;36.39;33.90;99832.78;5059336;28;20118;-64
2023/07/13 08:30:33;;;;;;;10.40;8.52;;;;;;;36.47;33.09;99836.66;5059881;28;20057;-64
2023/07/13 08:32:59;;;;;;;10.88;9.55;;;;;;;36.47;33.58;99836.66;5059826;28;20043;-64
2023/07/13 08:35:25;;;;;;;11.82;9.60;;;;;;;36.44;33.06;99834.56;5059414;28;20041;-64
2023/07/13 08:37:51;;;;;;;12.88;9.55;;;;;;;36.48;33.78;99834.72;5059776;28;20037;-62
2023/07/13 08:40:19;;;;;;;11.13;8.95;;;;;;;36.66;32.71;99834.28;5059058;28;20337;-62
2023/07/13 08:42:51;;;;;;;10.85;9.75;;;;;;;36.63;34.22;99823.13;5059135;28;20331;-62
2023/07/13 08:45:42;;;;;;;10.10;9.00;;;;;;;36.59;34.28;99834.00;5059267;28;20035;-62
2023/07/13 08:48:10;;;;;;;13.63;9.25;;;;;;;36.71;33.02;99822.25;5059084;28;20040;-62
2023/07/13 08:50:47;;;;;;;11.82;8.75;;;;;;;36.79;32.34;99820.59;5059933;28;20119;-62
2023/07/13 08:53:15;;;;;;;9.68;8.68;;;;;;;36.86;31.18;99820.88;5060033;28;20033;-62
2023/07/13 08:55:40;;;;;;;13.05;8.45;;;;;;;36.92;31.38;99811.25;5059643;28;20108;-62
2023/07/13 08:58:14;;;;;;;10.30;8.27;;;;;;;36.97;30.18;99806.34;5059731;28;20120;-62
2023/07/13 09:00:54;;;;;;;8.63;7.70;;;;;;;37.02;30.45;99810.88;5059927;28;20033;-62
2023/07/13 09:03:23;;;;;;;10.20;8.43;;;;;;;37.11;29.67;99811.59;5059298;28;20083;-62
2023/07/13 09:05:58;;;;;;;10.57;8.18;;;;;;;37.21;30.97;99810.38;5059424;28;20064;-62
2023/07/13 09:09:01;;;;;;;10.57;8.50;;;;;;;37.30;31.73;99811.16;5059366;28;20210;-62
2023/07/13 09:11:41;;;;;;;12.18;8.45;;;;;;;37.34;30.54;99806.56;5023512;28;20099;-62
2023/07/13 09:14:18;;;;;;;11.13;8.70;;;;;;;37.28;31.16;99805.16;5058559;28;20045;-62
2023/07/13 09:16:46;;;;;;;9.75;8.68;;;;;;;37.28;30.76;99803.19;5059106;28;20317;-62
2023/07/13 09:19:22;;;;;;;11.75;8.63;;;;;;;37.30;30.09;99797.34;5058670;28;20048;-62
2023/07/13 09:21:50;;;;;;;10.75;8.68;;;;;;;37.36;30.00;99791.25;5059428;28;20261;-62
2023/07/13 09:24:36;;;;;;;10.18;8.95;;;;;;;37.42;31.04;99793.81;5059013;28;20029;-62
2023/07/13 09:27:10;;;;;;;9.68;8.55;;;;;;;37.40;30.08;99786.69;5057808;28;20089;-62
2023/07/13 09:29:38;;;;;;;9.02;8.23;;;;;;;37.36;28.93;99779.41;5059453;28;20311;-62
2023/07/13 09:32:09;;;;;;;9.35;8.32;;;;;;;37.30;29.63;99778.81;5058250;28;20040;-62
2023/07/13 09:34:35;;;;;;;11.90;8.15;;;;;;;37.17;30.11;99774.34;5058694;28;20428;-62
2023/07/13 09:37:00;;;;;;;11.25;7.97;;;;;;;37.01;30.18;99767.84;5058829;28;20041;-62
2023/07/13 09:39:36;;;;;;;10.75;8.50;;;;;;;36.76;29.23;99764.16;5058891;28;20033;-62
2023/07/13 09:42:11;;;;;;;9.27;8.40;;;;;;;36.67;30.72;99764.19;5058516;28;20041;-61
2023/07/13 09:44:39;;;;;;;9.35;8.35;;;;;;;36.56;30.59;99760.19;5058237;28;20043;-62
2023/07/13 09:47:16;;;;;;;8.73;7.88;;;;;;;36.39;33.85;99743.72;5058224;28;20121;-62
2023/07/13 09:49:43;;;;;;;9.23;8.05;;;;;;;36.33;31.66;99732.09;5058434;28;20467;-62
2023/07/13 09:52:14;;;;;;;9.38;8.15;;;;;;;36.29;29.93;99731.16;5058063;28;20323;-61
2023/07/13 09:54:39;;;;;;;9.27;8.23;;;;;;;36.14;30.91;99726.97;5058174;28;20090;-62
2023/07/13 09:57:22;;;;;;;12.45;8.15;;;;;;;35.94;31.36;99730.47;5058172;28;20049;-62
2023/07/13 09:59:49;;;;;;;11.27;8.98;;;;;;;35.88;33.64;99731.00;5058023;28;20132;-62
2023/07/13 10:02:35;;;;;;;8.85;7.95;;;;;;;35.67;31.84;99720.69;5058113;28;20099;-62
2023/07/13 10:05:04;;;;;;;9.70;7.97;;;;;;;35.78;33.83;99729.38;5058586;28;20037;-62
2023/07/13 10:07:31;;;;;;;9.48;8.40;;;;;;;35.59;33.77;99724.28;5058852;28;20044;-61
2023/07/13 10:10:03;;;;;;;14.38;8.90;;;;;;;35.65;33.44;99716.63;5058497;28;20041;-62
2023/07/13 10:12:35;;;;;;;8.95;8.02;;;;;;;35.69;32.11;99714.84;5058109;28;20029;-62
2023/07/13 10:15:01;;;;;;;13.82;9.52;;;;;;;35.56;36.56;99715.84;5058021;28;20024;-62
2023/07/13 10:17:32;;;;;;;11.23;10.13;;;;;;;35.40;35.11;99716.38;5057982;28;20285;-62
2023/07/13 10:20:02;;;;;;;10.73;9.07;;;;;;;35.38;34.13;99715.09;5057028;28;20305;-62
2023/07/13 10:22:44;;;;;;;10.15;9.18;;;;;;;35.37;34.68;99719.75;5057548;28;20342;-61
2023/07/13 10:25:18;;;;;;;10.05;9.15;;;;;;;35.34;35.79;99714.91;5057120;28;20342;-62
2023/07/13 10:27:44;;;;;;;14.18;10.73;;;;;;;35.30;40.89;99718.63;5057106;28;20100;-61
2023/07/13 10:30:46;;;;;;;10.90;9.23;;;;;;;35.14;35.98;99718.31;5056889;28;20032;-61
2023/07/13 10:33:13;;;;;;;10.68;9.40;;;;;;;35.05;36.11;99709.25;4956906;28;20039;-61
2023/07/13 10:35:41;;;;;;;12.68;10.48;;;;;;;35.10;36.18;99706.34;5037643;28;20045;-62
2023/07/13 10:38:12;;;;;;;10.98;9.70;;;;;;;35.17;35.90;99698.41;5057346;28;20356;-62
2023/07/13 10:40:42;;;;;;;10.88;9.18;;;;;;;35.08;35.80;99692.09;5057881;28;20067;-62
2023/07/13 10:43:32;;;;;;;26.10;10.05;;;;;;;35.18;36.79;99689.00;5057279;28;20037;-61
2023/07/13 10:46:00;;;;;;;9.02;7.88;;;;;;;35.29;35.06;99687.53;5057545;28;20036;-61
2023/07/13 10:48:26;;;;;;;8.20;7.00;;;;;;;35.38;32.86;99679.31;5057528;28;20063;-62
2023/07/13 10:50:53;;;;;;;11.43;8.23;;;;;;;35.45;33.76;99671.34;5057372;28;20079;-61
2023/07/13 10:53:36;;;;;;;9.43;8.27;;;;;;;35.54;33.56;99674.88;5056082;28;20044;-62
2023/07/13 10:56:25;;;;;;;10.15;9.15;;;;;;;35.47;34.46;99678.16;5057191;28;20136;-62
2023/07/13 10:59:10;;;;;;;10.68;9.55;;;;;;;35.47;35.00;99674.59;5039284;28;20045;-62
2023/07/13 11:01:56;;;;;;;11.68;9.02;;;;;;;35.46;36.76;99667.47;5056994;28;20060;-62
2023/07/13 11:04:25;;;;;;;9.65;8.60;;;;;;;35.46;36.54;99664.69;5057814;28;20037;-62
2023/07/13 11:06:55;;;;;;;9.52;8.57;;;;;;;35.45;34.61;99663.09;5057306;28;20047;-61
2023/07/13 11:09:33;;;;;;;10.50;8.85;;;;;;;35.44;34.54;99654.03;5056747;28;20082;-62
2023/07/13 11:12:06;;;;;;;9.10;7.90;;;;;;;35.44;32.84;99654.03;5057128;28;20247;-62
2023/07/13 11:14:38;;;;;;;9.15;8.00;;;;;;;35.58;31.92;99655.75;5056918;28;20208;-61
2023/07/13 11:17:48;;;;;;;9.30;8.02;;;;;;;35.59;33.01;99655.41;5057240;28;20075;-62
2023/07/13 11:20:13;;;;;;;9.35;8.30;;;;;;;35.58;32.19;99655.75;5057024;28;20526;-62
2023/07/13 11:23:06;;;;;;;9.98;8.23;;;;;;;35.67;31.33;99654.56;5057472;28;20407;-61